Time;durP1;ratioP1;P1;durP2;ratioP2;P2;SDS_P1;SDS_P2;PMS_P1;PMS_P2;Temp;Humidity;BMP_temperature;BMP_pressure;BME280_temperature;BME280_humidity;BME280_pressure;Samples;Min_cycle;Max_cycle;Signal;HPM_P1;HPM_P2
2022/10/03 00:01:08;;;;;;;7.10;6.50;;;;;;;14.57;90.74;99486.09;5015515;27;103615;-73
2022/10/03 00:03:43;;;;;;;7.43;6.85;;;;;;;14.50;89.99;99494.56;5009705;27;104194;-73
2022/10/03 00:06:15;;;;;;;7.83;7.17;;;;;;;14.59;90.06;99497.47;5010764;27;102761;-72
2022/10/03 00:09:20;;;;;;;9.00;8.20;;;;;;;14.17;92.98;99506.84;5011045;27;103464;-72
2022/10/03 00:12:03;;;;;;;7.88;7.07;;;;;;;14.16;94.42;99505.97;4944614;27;103296;-72
2022/10/03 00:14:44;;;;;;;6.35;5.85;;;;;;;14.34;92.98;99511.78;5011368;27;103143;-72
2022/10/03 00:17:21;;;;;;;7.43;6.82;;;;;;;14.52;91.99;99513.88;5012151;27;103460;-72
2022/10/03 00:19:59;;;;;;;7.68;6.97;;;;;;;14.60;91.07;99517.75;5020696;27;104209;-72
2022/10/03 00:22:36;;;;;;;6.05;5.55;;;;;;;14.56;91.80;99511.00;5013608;27;104090;-73
2022/10/03 00:25:18;;;;;;;7.45;6.85;;;;;;;14.57;91.61;99512.69;5010652;27;102910;-72
2022/10/03 00:27:54;;;;;;;6.25;5.65;;;;;;;14.70;91.14;99514.31;5014662;27;103059;-72
2022/10/03 00:30:24;;;;;;;6.57;6.07;;;;;;;14.80;90.02;99514.44;4993643;27;103155;-72
2022/10/03 00:33:10;;;;;;;5.13;4.73;;;;;;;14.79;90.56;99518.91;4994282;27;104538;-72
2022/10/03 00:35:51;;;;;;;5.18;4.78;;;;;;;14.92;89.60;99518.81;5016360;27;102775;-72
2022/10/03 00:38:40;;;;;;;5.18;4.78;;;;;;;14.96;89.30;99520.28;5013070;27;102771;-72
2022/10/03 00:41:43;;;;;;;7.95;7.28;;;;;;;14.70;88.85;99524.94;4996472;27;104105;-72
2022/10/03 00:44:51;;;;;;;8.90;8.10;;;;;;;14.27;92.57;99542.38;5004474;27;103405;-72
2022/10/03 00:47:46;;;;;;;7.38;6.78;;;;;;;14.55;90.99;99546.50;5015731;27;103008;-72
2022/10/03 00:50:36;;;;;;;5.25;4.85;;;;;;;14.70;90.99;99545.38;5017530;27;103097;-72
2022/10/03 00:53:29;;;;;;;6.55;6.05;;;;;;;14.83;89.86;99540.81;5007314;27;103990;-72
2022/10/03 00:56:22;;;;;;;5.80;5.40;;;;;;;14.89;89.65;99540.34;4994702;28;103173;-72
2022/10/03 00:59:06;;;;;;;7.60;6.85;;;;;;;14.82;89.31;99536.47;4997440;28;102851;-72
2022/10/03 01:01:39;;;;;;;8.23;7.53;;;;;;;14.71;90.69;99536.44;5008941;27;103570;-72
2022/10/03 01:04:23;;;;;;;7.20;6.68;;;;;;;14.82;90.88;99539.13;5011458;27;103400;-72
2022/10/03 01:07:02;;;;;;;7.10;6.50;;;;;;;14.89;90.71;99535.00;5010782;27;103225;-72
2022/10/03 01:09:55;;;;;;;7.40;6.78;;;;;;;14.82;89.44;99539.13;5011420;27;102639;-72
2022/10/03 01:12:49;;;;;;;5.97;5.47;;;;;;;14.93;90.30;99536.50;5018053;27;105006;-72
2022/10/03 01:15:27;;;;;;;8.90;8.00;;;;;;;14.82;89.80;99528.47;5012129;27;103307;-72
2022/10/03 01:18:09;;;;;;;5.63;5.13;;;;;;;14.92;90.26;99529.47;5011626;27;103256;-72
2022/10/03 01:20:45;;;;;;;5.70;5.30;;;;;;;14.97;89.45;99521.97;5010314;27;104185;-72
2022/10/03 01:23:54;;;;;;;7.32;6.72;;;;;;;14.85;88.29;99534.41;5013155;27;102972;-73
2022/10/03 01:26:49;;;;;;;8.55;7.85;;;;;;;14.60;90.80;99531.06;5012005;27;105240;-73
2022/10/03 01:32:17;;;;;;;6.50;6.00;;;;;;;14.84;89.62;99537.19;5013317;27;102991;-73
2022/10/03 01:34:55;;;;;;;5.40;4.93;;;;;;;14.87;89.39;99536.97;5018480;27;103907;-73
2022/10/03 01:37:30;;;;;;;9.13;8.23;;;;;;;14.61;89.12;99543.41;5013059;27;103396;-73
2022/10/03 01:40:09;;;;;;;6.25;5.75;;;;;;;14.76;89.70;99545.75;5011148;27;103468;-73
2022/10/03 01:42:44;;;;;;;5.43;4.93;;;;;;;14.82;89.59;99539.13;5010785;27;102735;-73
2022/10/03 01:45:29;;;;;;;4.75;4.45;;;;;;;14.87;89.21;99542.28;5009841;27;104210;-73
2022/10/03 01:48:02;;;;;;;5.43;4.93;;;;;;;14.89;88.98;99545.66;5010022;27;104143;-72
2022/10/03 01:50:36;;;;;;;7.60;6.97;;;;;;;14.74;88.64;99549.47;4991105;27;104212;-72
2022/10/03 01:53:12;;;;;;;6.63;6.13;;;;;;;14.83;89.65;99556.75;5009703;27;103021;-72
2022/10/03 01:55:50;;;;;;;7.90;7.10;;;;;;;14.82;89.01;99560.41;5007772;27;103890;-72
2022/10/03 01:58:25;;;;;;;5.80;5.30;;;;;;;14.85;89.64;99560.19;5005027;27;103313;-72
2022/10/03 02:01:07;;;;;;;7.50;6.90;;;;;;;14.85;89.26;99566.31;4991430;27;104446;-72
2022/10/03 02:03:48;;;;;;;8.88;7.85;;;;;;;14.74;89.09;99578.72;5010151;27;102814;-72
2022/10/03 02:06:24;;;;;;;8.82;8.02;;;;;;;14.65;89.49;99579.44;5012977;27;103800;-72
2022/10/03 02:08:58;;;;;;;8.27;7.55;;;;;;;14.69;89.66;99580.91;5009961;27;103342;-72
2022/10/03 02:11:32;;;;;;;7.63;6.93;;;;;;;14.66;90.65;99573.16;5010111;27;104379;-73
2022/10/03 02:14:15;;;;;;;5.95;5.45;;;;;;;14.79;89.87;99577.41;5009766;27;103068;-72
2022/10/03 02:16:56;;;;;;;8.65;7.93;;;;;;;14.78;88.92;99582.88;5011418;27;103650;-72
2022/10/03 02:19:28;;;;;;;7.47;6.82;;;;;;;14.86;89.05;99585.78;5010242;27;103776;-72
2022/10/03 02:22:00;;;;;;;8.30;7.60;;;;;;;14.83;88.53;99583.38;4995195;27;104111;-72
2022/10/03 02:24:41;;;;;;;8.60;7.80;;;;;;;14.75;89.17;99583.09;5009466;27;103103;-72
2022/10/03 02:27:52;;;;;;;8.93;8.13;;;;;;;14.41;89.33;99582.97;5013699;27;103150;-72
2022/10/03 02:30:23;;;;;;;8.35;7.63;;;;;;;14.69;89.85;99581.75;5012833;27;103401;-72
2022/10/03 02:33:33;;;;;;;9.43;8.43;;;;;;;14.62;89.44;99583.19;5013570;27;103207;-72
2022/10/03 02:36:40;;;;;;;10.90;9.03;;;;;;;14.62;89.72;99579.69;4998925;27;102706;-72
2022/10/03 02:39:53;;;;;;;9.82;8.82;;;;;;;14.67;89.73;99581.03;5012958;27;104128;-72
2022/10/03 02:42:39;;;;;;;7.97;7.38;;;;;;;14.77;89.15;99587.34;5012184;27;103416;-72
2022/10/03 02:45:42;;;;;;;8.60;7.82;;;;;;;14.79;89.20;99579.25;5013205;27;103203;-72
2022/10/03 02:48:47;;;;;;;10.10;9.07;;;;;;;14.54;89.71;99582.06;5012907;27;102770;-72
2022/10/03 02:51:39;;;;;;;7.37;6.77;;;;;;;14.63;90.63;99582.22;5013987;27;104134;-72
2022/10/03 02:54:46;;;;;;;8.30;7.47;;;;;;;14.66;90.56;99575.81;5010385;27;104306;-72
2022/10/03 02:58:01;;;;;;;9.65;8.85;;;;;;;14.58;90.33;99576.38;5000073;27;103800;-72
2022/10/03 03:01:06;;;;;;;9.90;9.00;;;;;;;14.47;90.98;99577.19;4958266;27;102780;-72
2022/10/03 03:04:13;;;;;;;6.95;6.35;;;;;;;14.65;90.79;99579.44;4982464;27;104184;-72
2022/10/03 03:06:57;;;;;;;6.05;5.55;;;;;;;14.72;90.20;99578.00;4971459;27;104180;-72
2022/10/03 03:10:03;;;;;;;7.80;7.10;;;;;;;14.67;89.45;99578.38;5011932;27;103234;-72
2022/10/03 03:13:05;;;;;;;6.07;5.57;;;;;;;14.71;89.17;99573.69;4896228;28;103480;-72
2022/10/03 03:16:02;;;;;;;5.60;5.20;;;;;;;14.76;88.78;99575.03;5015902;27;102911;-72
2022/10/03 03:18:36;;;;;;;7.13;6.43;;;;;;;14.77;88.75;99573.19;5013657;27;103893;-72
2022/10/03 03:21:21;;;;;;;5.67;5.17;;;;;;;14.75;88.33;99575.13;5013741;27;103301;-72
2022/10/03 03:24:22;;;;;;;9.50;8.50;;;;;;;14.13;90.47;99571.78;5016273;27;102743;-72
2022/10/03 03:27:01;;;;;;;6.85;6.25;;;;;;;14.30;91.70;99566.94;4992602;27;103767;-72
2022/10/03 03:29:40;;;;;;;5.87;5.47;;;;;;;14.55;90.42;99570.44;5014554;27;103539;-72
2022/10/03 03:32:19;;;;;;;8.65;7.95;;;;;;;14.47;89.51;99565.72;4992630;27;104335;-72
2022/10/03 03:34:56;;;;;;;6.70;6.13;;;;;;;14.50;90.25;99574.31;5014789;27;103150;-72
2022/10/03 03:37:34;;;;;;;5.70;5.20;;;;;;;14.61;89.95;99570.84;5015292;27;103888;-72
2022/10/03 03:40:23;;;;;;;8.98;8.13;;;;;;;14.42;90.05;99579.34;5013671;27;103942;-72
2022/10/03 03:43:12;;;;;;;6.38;5.88;;;;;;;14.60;90.07;99576.25;5011329;27;103230;-72
2022/10/03 03:45:49;;;;;;;5.27;4.87;;;;;;;14.66;89.86;99574.00;5013315;27;102703;-72
2022/10/03 03:48:38;;;;;;;5.00;4.63;;;;;;;14.73;89.45;99571.75;5011636;27;104195;-72
2022/10/03 03:51:20;;;;;;;6.80;6.20;;;;;;;14.64;89.45;99578.59;5014111;27;103858;-72
2022/10/03 03:54:12;;;;;;;7.00;6.40;;;;;;;14.68;89.05;99580.03;4994938;27;103071;-72
2022/10/03 03:57:01;;;;;;;5.38;4.97;;;;;;;14.71;89.61;99579.00;5021875;27;103012;-72
2022/10/03 03:59:46;;;;;;;7.05;6.55;;;;;;;14.41;91.15;99582.97;5011648;27;102910;-72
2022/10/03 04:02:26;;;;;;;8.87;8.07;;;;;;;14.06;92.98;99594.47;5009473;27;104665;-72
2022/10/03 04:05:08;;;;;;;13.32;10.57;;;;;;;13.54;96.21;99589.34;5013760;27;103146;-72
2022/10/03 04:07:52;;;;;;;10.25;9.35;;;;;;;13.68;95.78;99590.06;5011295;27;102756;-72
2022/10/03 04:10:31;;;;;;;10.18;8.82;;;;;;;13.68;94.76;99589.22;4994612;27;104476;-72
2022/10/03 04:13:18;;;;;;;12.38;9.63;;;;;;;13.59;96.26;99592.53;5021455;27;104320;-72
2022/10/03 04:16:00;;;;;;;9.40;8.47;;;;;;;13.82;96.35;99594.41;5013009;27;103671;-72
2022/10/03 04:18:57;;;;;;;9.68;8.30;;;;;;;14.04;93.66;99588.38;5012897;27;103228;-72
2022/10/03 04:21:47;;;;;;;10.60;9.50;;;;;;;13.54;95.01;99599.97;4996198;27;103351;-72
2022/10/03 04:24:30;;;;;;;9.00;8.15;;;;;;;13.93;94.37;99591.81;5012719;27;105308;-72
2022/10/03 04:27:13;;;;;;;6.80;6.20;;;;;;;14.16;93.83;99593.66;5013387;27;103246;-72
2022/10/03 04:29:50;;;;;;;6.20;5.72;;;;;;;14.31;92.78;99592.56;5013944;27;103637;-72
2022/10/03 04:32:38;;;;;;;7.45;6.85;;;;;;;14.40;91.42;99594.56;5011235;27;103164;-72
2022/10/03 04:35:34;;;;;;;5.82;5.32;;;;;;;14.46;91.40;99602.09;4994895;27;104241;-72
2022/10/03 04:38:13;;;;;;;5.90;5.40;;;;;;;14.50;90.28;99603.56;5006353;27;104160;-72
2022/10/03 04:40:48;;;;;;;5.10;4.70;;;;;;;14.57;89.75;99606.59;5014471;27;102728;-72
2022/10/03 04:43:33;;;;;;;5.00;4.60;;;;;;;14.61;89.74;99600.09;5013753;27;102980;-72
2022/10/03 04:46:18;;;;;;;8.15;7.35;;;;;;;14.62;88.96;99596.50;5010929;27;103910;-72
2022/10/03 04:48:51;;;;;;;6.63;6.10;;;;;;;14.49;90.02;99601.84;5009707;27;103197;-72
2022/10/03 04:51:29;;;;;;;5.83;5.33;;;;;;;14.61;89.81;99605.41;5012696;27;103045;-73
2022/10/03 04:54:03;;;;;;;9.15;8.35;;;;;;;14.59;88.78;99601.19;5011744;27;102831;-72
2022/10/03 04:56:42;;;;;;;6.13;5.57;;;;;;;14.63;88.95;99607.94;5011098;27;103772;-72
2022/10/03 04:59:28;;;;;;;6.32;5.82;;;;;;;14.63;89.03;99607.94;4992373;27;103356;-71
2022/10/03 05:02:02;;;;;;;7.00;6.40;;;;;;;14.63;88.94;99607.94;4997448;28;102993;-69
2022/10/03 05:04:39;;;;;;;9.63;8.63;;;;;;;14.59;88.34;99611.81;5017265;28;102829;-68
2022/10/03 05:07:13;;;;;;;9.13;8.23;;;;;;;14.55;89.01;99616.50;5017274;28;103323;-69
2022/10/03 05:09:48;;;;;;;8.02;7.35;;;;;;;14.52;88.44;99622.91;5014268;28;103292;-69
2022/10/03 05:12:27;;;;;;;8.93;8.13;;;;;;;14.63;88.71;99615.94;5015951;28;102637;-69
2022/10/03 05:15:11;;;;;;;9.00;8.20;;;;;;;14.58;88.66;99615.44;4999625;28;104512;-70
2022/10/03 05:17:48;;;;;;;11.63;10.53;;;;;;;14.45;88.72;99621.66;5013056;27;104463;-69
2022/10/03 05:20:28;;;;;;;10.90;9.80;;;;;;;14.46;89.12;99623.34;5015342;28;103465;-69
2022/10/03 05:23:03;;;;;;;9.65;8.80;;;;;;;14.59;88.79;99627.78;5012721;28;102703;-69
2022/10/03 05:25:52;;;;;;;12.00;10.80;;;;;;;14.20;88.55;99627.06;4996830;28;104255;-69
2022/10/03 05:28:30;;;;;;;13.57;11.98;;;;;;;14.03;90.57;99624.75;5013718;28;103479;-69
2022/10/03 05:31:06;;;;;;;15.05;12.25;;;;;;;13.99;90.09;99623.28;5015055;28;104365;-69
2022/10/03 05:33:47;;;;;;;11.65;10.55;;;;;;;14.27;90.61;99638.91;5002714;27;102662;-69
2022/10/03 05:36:27;;;;;;;12.43;11.32;;;;;;;14.24;89.88;99636.47;5011523;27;102930;-68
2022/10/03 05:39:24;;;;;;;15.85;13.65;;;;;;;13.73;92.92;99633.09;5001662;27;103755;-68
2022/10/03 05:41:54;;;;;;;11.20;10.15;;;;;;;14.00;92.39;99640.91;5010480;27;104075;-68
2022/10/03 05:44:45;;;;;;;13.70;12.25;;;;;;;13.86;92.64;99649.03;4999417;27;102768;-67
2022/10/03 05:47:47;;;;;;;12.63;11.32;;;;;;;14.06;91.64;99655.56;5013200;27;104415;-68
2022/10/03 05:50:56;;;;;;;12.88;11.63;;;;;;;14.16;90.13;99656.59;5006088;27;103229;-68
2022/10/03 05:54:01;;;;;;;12.95;11.65;;;;;;;14.02;90.52;99660.25;5003357;27;103278;-67
2022/10/03 05:56:49;;;;;;;12.27;11.00;;;;;;;14.23;89.41;99665.84;5012890;27;103144;-67
2022/10/03 05:59:42;;;;;;;11.05;10.02;;;;;;;14.23;88.93;99669.31;4993143;27;103262;-66
2022/10/03 06:02:46;;;;;;;11.53;10.40;;;;;;;14.28;89.07;99669.88;5013765;27;105203;-67
2022/10/03 06:05:23;;;;;;;11.38;10.20;;;;;;;14.24;89.27;99673.69;5000860;27;103227;-66
2022/10/03 06:08:20;;;;;;;11.73;10.60;;;;;;;14.28;88.52;99671.66;4999221;27;102872;-68
2022/10/03 06:10:51;;;;;;;10.15;9.13;;;;;;;14.37;88.31;99671.03;4966487;27;104341;-69
2022/10/03 06:13:29;;;;;;;9.47;8.53;;;;;;;14.39;87.59;99667.31;5003903;27;103108;-69
2022/10/03 06:16:04;;;;;;;11.32;10.13;;;;;;;14.26;88.36;99674.41;5007137;27;103330;-69
2022/10/03 06:18:53;;;;;;;10.18;9.23;;;;;;;14.38;88.85;99665.59;4996576;28;102843;-67
2022/10/03 06:21:54;;;;;;;11.40;10.30;;;;;;;14.22;88.39;99672.97;4993070;27;102672;-67
2022/10/03 06:25:04;;;;;;;11.48;10.45;;;;;;;14.37;89.49;99676.38;4957483;28;104352;-68
2022/10/03 06:28:29;;;;;;;10.75;9.65;;;;;;;14.42;88.41;99685.72;4972233;28;103312;-67
2022/10/03 06:31:19;;;;;;;11.52;10.30;;;;;;;14.40;90.31;99686.75;4929008;28;102897;-67
2022/10/03 06:34:16;;;;;;;8.43;7.72;;;;;;;14.80;88.99;99692.66;4912476;28;104042;-67
2022/10/03 06:37:00;;;;;;;11.90;10.68;;;;;;;14.67;86.76;99691.88;5002848;28;103645;-68
2022/10/03 06:39:55;;;;;;;11.02;9.93;;;;;;;14.74;88.54;99701.09;5007410;28;103195;-67
2022/10/03 06:42:55;;;;;;;13.20;11.77;;;;;;;14.31;87.02;99704.22;4998437;27;103386;-68
2022/10/03 06:46:12;;;;;;;14.23;12.20;;;;;;;14.73;88.38;99694.09;4990697;28;103695;-68
2022/10/03 06:49:17;;;;;;;12.33;11.00;;;;;;;14.73;85.76;99705.59;4954119;28;102976;-67
2022/10/03 06:52:25;;;;;;;12.68;11.25;;;;;;;14.24;87.35;99710.91;4982053;28;104157;-67
2022/10/03 06:55:19;;;;;;;12.52;11.25;;;;;;;14.32;88.57;99708.56;4912268;28;103337;-66
2022/10/03 06:58:22;;;;;;;11.00;10.00;;;;;;;14.59;88.88;99712.88;4983309;28;103740;-66
2022/10/03 07:01:04;;;;;;;11.70;10.27;;;;;;;14.77;87.29;99708.84;4976762;28;103232;-66
2022/10/03 07:03:53;;;;;;;11.32;10.15;;;;;;;14.65;86.59;99715.09;4965891;28;103729;-69
2022/10/03 07:06:45;;;;;;;12.55;11.25;;;;;;;13.83;88.96;99718.28;4981279;28;103492;-67
2022/10/03 07:09:52;;;;;;;15.38;11.43;;;;;;;13.62;91.64;99725.94;4967447;28;104281;-67
2022/10/03 07:13:01;;;;;;;12.40;11.10;;;;;;;13.87;89.91;99725.06;4988235;28;104787;-67
2022/10/03 07:16:02;;;;;;;10.60;9.20;;;;;;;14.52;87.00;99731.91;4987460;28;103917;-67
2022/10/03 07:19:25;;;;;;;11.52;10.23;;;;;;;14.27;87.31;99734.59;4987435;28;103169;-67
2022/10/03 07:22:32;;;;;;;12.18;10.13;;;;;;;13.89;87.01;99731.16;4987461;28;103130;-68
2022/10/03 07:25:25;;;;;;;12.15;10.30;;;;;;;13.94;86.91;99731.69;4972258;28;103126;-67
2022/10/03 07:28:07;;;;;;;13.05;10.35;;;;;;;14.03;85.32;99735.50;4983415;28;103189;-65
2022/10/03 07:30:58;;;;;;;13.18;10.45;;;;;;;13.84;85.83;99735.91;4967847;28;103035;-67
2022/10/03 07:33:50;;;;;;;11.17;10.00;;;;;;;14.23;88.11;99743.75;4987982;28;103013;-68
2022/10/03 07:39:53;;;;;;;12.70;9.88;;;;;;;14.99;84.56;99746.22;4991222;28;103308;-66
2022/10/03 07:42:52;;;;;;;7.93;7.13;;;;;;;14.93;84.79;99739.53;4944912;28;103154;-67
2022/10/03 07:45:33;;;;;;;11.40;8.90;;;;;;;14.17;85.62;99744.22;4972836;28;102836;-67
2022/10/03 07:48:36;;;;;;;8.00;6.77;;;;;;;14.31;86.18;99748.53;4994597;28;103712;-67
2022/10/03 07:51:22;;;;;;;6.50;5.65;;;;;;;14.26;85.82;99748.03;4984438;28;103636;-67
2022/10/03 07:54:23;;;;;;;9.70;7.40;;;;;;;14.67;85.81;99753.06;4983162;28;102833;-68
2022/10/03 07:57:21;;;;;;;12.25;8.45;;;;;;;13.66;85.85;99756.63;4980039;28;104066;-67
2022/10/03 08:00:08;;;;;;;12.65;7.80;;;;;;;13.97;87.98;99752.72;4991361;28;103463;-67
2022/10/03 08:03:41;;;;;;;9.67;7.83;;;;;;;13.77;87.94;99753.25;4983779;28;103245;-66
2022/10/03 08:06:22;;;;;;;9.88;7.38;;;;;;;13.89;86.21;99755.06;4991388;28;102916;-67
2022/10/03 08:09:08;;;;;;;9.27;7.20;;;;;;;13.63;84.37;99759.50;4991919;28;102734;-66
2022/10/03 08:12:00;;;;;;;11.02;7.38;;;;;;;13.30;87.99;99762.59;4989145;28;103147;-67
2022/10/03 08:14:38;;;;;;;10.50;6.30;;;;;;;13.84;84.80;99770.44;4969285;28;103047;-67
2022/10/03 08:17:36;;;;;;;10.60;6.10;;;;;;;13.89;82.51;99769.16;4984246;28;103035;-67
2022/10/03 08:20:22;;;;;;;11.88;6.10;;;;;;;14.09;81.50;99766.97;4993297;28;103191;-67
2022/10/03 08:23:07;;;;;;;7.88;6.20;;;;;;;14.38;83.70;99771.94;4978404;28;104966;-67
2022/10/03 08:25:53;;;;;;;7.72;5.70;;;;;;;14.48;83.95;99774.81;4993695;28;103202;-67
2022/10/03 08:28:44;;;;;;;7.00;5.40;;;;;;;14.80;80.43;99772.47;4994671;28;104337;-67
2022/10/03 08:31:57;;;;;;;6.35;4.70;;;;;;;15.18;79.47;99772.31;4995963;28;102818;-67
2022/10/03 08:34:43;;;;;;;9.60;6.27;;;;;;;14.79;81.08;99770.78;4981285;28;104151;-67
2022/10/03 08:38:02;;;;;;;9.00;5.60;;;;;;;14.53;81.52;99762.03;4980797;28;103284;-66
2022/10/03 08:41:19;;;;;;;9.80;7.10;;;;;;;13.84;85.84;99775.75;4986903;28;102949;-66
2022/10/03 08:44:13;;;;;;;10.90;7.13;;;;;;;14.66;83.86;99775.28;4898753;28;102842;-67
2022/10/03 08:47:17;;;;;;;8.60;5.93;;;;;;;14.85;82.26;99779.16;4981627;28;103621;-66
2022/10/03 08:50:22;;;;;;;11.60;7.30;;;;;;;14.20;83.13;99765.25;4989944;28;103241;-66
2022/10/03 08:53:19;;;;;;;8.70;6.10;;;;;;;14.80;85.58;99769.81;4969056;28;103975;-67
2022/10/03 08:55:59;;;;;;;9.05;6.47;;;;;;;15.00;80.65;99774.53;4988176;28;103800;-67
2022/10/03 08:58:58;;;;;;;7.33;5.23;;;;;;;14.95;80.27;99772.22;4988177;28;103285;-67
2022/10/03 09:01:39;;;;;;;9.05;6.50;;;;;;;15.20;81.32;99773.91;4987962;28;103242;-66
2022/10/03 09:04:45;;;;;;;7.07;5.35;;;;;;;15.28;80.47;99770.66;4987145;28;104182;-67
2022/10/03 09:08:03;;;;;;;9.00;6.03;;;;;;;15.19;81.08;99771.34;4989578;28;102754;-66
2022/10/03 09:10:57;;;;;;;7.87;5.80;;;;;;;15.38;80.77;99761.03;4936247;28;103498;-66
2022/10/03 09:13:57;;;;;;;10.60;7.23;;;;;;;15.03;81.85;99766.31;4987597;28;103402;-66
2022/10/03 09:16:51;;;;;;;6.35;5.15;;;;;;;15.36;78.25;99765.63;4989001;28;103519;-67
2022/10/03 09:19:51;;;;;;;8.07;6.50;;;;;;;15.87;79.56;99766.16;4959500;28;103755;-67
2022/10/03 09:22:52;;;;;;;11.93;6.53;;;;;;;15.59;78.65;99765.63;4950121;28;104218;-67
2022/10/03 09:25:35;;;;;;;6.93;4.97;;;;;;;16.06;76.88;99761.94;4968554;28;103654;-67
2022/10/03 09:28:41;;;;;;;11.63;6.30;;;;;;;15.43;75.29;99770.38;4983303;27;102803;-66
2022/10/03 09:31:22;;;;;;;6.20;5.13;;;;;;;16.08;75.73;99756.50;4975823;28;102797;-66
2022/10/03 09:34:27;;;;;;;6.47;5.10;;;;;;;16.15;77.08;99757.72;4983877;27;104370;-65
2022/10/03 09:37:17;;;;;;;9.23;6.13;;;;;;;15.85;79.20;99760.09;4976123;28;104275;-66
2022/10/03 09:40:25;;;;;;;8.27;5.15;;;;;;;16.32;76.75;99759.91;4988205;28;102685;-66
2022/10/03 09:43:27;;;;;;;7.57;5.05;;;;;;;16.05;74.50;99754.94;4989089;28;102845;-66
2022/10/03 09:46:41;;;;;;;7.00;4.53;;;;;;;16.14;73.45;99745.38;4985966;28;103573;-66
2022/10/03 09:49:39;;;;;;;7.10;5.72;;;;;;;16.35;74.06;99753.47;4990113;28;103384;-66
2022/10/03 09:52:23;;;;;;;9.73;5.82;;;;;;;16.62;74.29;99746.81;4993655;28;102981;-66
2022/10/03 09:55:17;;;;;;;8.40;5.18;;;;;;;16.68;72.37;99751.66;4994046;28;103025;-66
2022/10/03 09:58:10;;;;;;;9.10;5.23;;;;;;;16.73;72.37;99749.44;4991667;28;104065;-66
2022/10/03 10:01:07;;;;;;;9.18;5.05;;;;;;;17.01;73.92;99757.91;4997374;28;103377;-67
2022/10/03 10:04:11;;;;;;;9.10;5.00;;;;;;;16.69;73.57;99753.34;4995468;28;103376;-66
2022/10/03 10:07:09;;;;;;;9.20;5.00;;;;;;;16.39;72.33;99758.47;4998281;28;102790;-66
2022/10/03 10:10:02;;;;;;;10.35;5.57;;;;;;;15.87;75.71;99759.00;4992980;28;103382;-66
2022/10/03 10:13:07;;;;;;;9.52;5.75;;;;;;;15.71;76.09;99757.66;4989004;28;103769;-66
2022/10/03 10:15:58;;;;;;;9.68;5.20;;;;;;;16.08;75.19;99756.50;4995997;28;102582;-66
2022/10/03 10:18:58;;;;;;;8.20;5.80;;;;;;;16.23;74.54;99766.81;4978320;28;103985;-66
2022/10/03 10:21:54;;;;;;;9.17;6.03;;;;;;;16.22;74.63;99761.59;4993913;28;103721;-66
2022/10/03 10:24:48;;;;;;;10.60;6.40;;;;;;;15.33;75.92;99766.69;4974658;28;103131;-66
2022/10/03 10:27:36;;;;;;;11.87;6.50;;;;;;;15.03;78.67;99771.66;4969095;28;103005;-67
2022/10/03 10:30:17;;;;;;;9.07;6.20;;;;;;;15.15;81.11;99765.41;4992477;28;104465;-69
2022/10/03 10:33:30;;;;;;;12.30;6.78;;;;;;;14.70;80.64;99764.31;5004457;28;104543;-69
2022/10/03 10:36:33;;;;;;;12.18;6.53;;;;;;;14.95;80.50;99774.03;4990280;28;103208;-69
2022/10/03 10:39:31;;;;;;;11.93;6.13;;;;;;;15.08;77.31;99774.81;4981423;28;103296;-66
2022/10/03 10:42:36;;;;;;;8.57;5.50;;;;;;;15.32;77.33;99773.00;4990132;28;104174;-66
2022/10/03 10:45:38;;;;;;;10.65;7.00;;;;;;;14.85;81.54;99781.00;4968338;28;104370;-65
2022/10/03 10:49:06;;;;;;;12.68;7.38;;;;;;;14.88;81.70;99778.06;4985349;28;104842;-65
2022/10/03 10:52:05;;;;;;;11.75;7.22;;;;;;;14.25;82.33;99771.09;4989712;28;102614;-65
2022/10/03 10:55:02;;;;;;;11.73;6.90;;;;;;;14.61;82.19;99770.31;4987165;28;103927;-65
2022/10/03 10:58:17;;;;;;;10.82;6.03;;;;;;;14.85;81.17;99773.00;4973167;28;104320;-65
2022/10/03 11:01:13;;;;;;;12.45;6.10;;;;;;;15.23;79.84;99763.03;4989302;28;103223;-65
2022/10/03 11:04:17;;;;;;;9.85;5.82;;;;;;;14.49;79.79;99777.34;4989314;28;102954;-65
2022/10/03 11:07:18;;;;;;;11.33;5.30;;;;;;;14.70;79.24;99763.47;4978701;28;103268;-66
2022/10/03 11:10:27;;;;;;;7.50;4.30;;;;;;;15.91;74.83;99754.31;4935561;28;104155;-66
2022/10/03 11:13:22;;;;;;;6.47;3.93;;;;;;;16.40;70.96;99752.13;4992490;28;103212;-66
2022/10/03 11:16:20;;;;;;;6.60;4.10;;;;;;;17.59;64.62;99746.75;4989591;28;102808;-65
2022/10/03 11:19:26;;;;;;;6.55;3.60;;;;;;;18.06;61.44;99736.47;4988814;28;102796;-66
2022/10/03 11:22:48;;;;;;;6.05;3.58;;;;;;;18.44;60.70;99736.66;4985275;28;103355;-66
2022/10/03 11:26:04;;;;;;;7.03;4.30;;;;;;;18.31;60.80;99738.69;4987756;28;103754;-66
2022/10/03 11:29:17;;;;;;;7.57;4.33;;;;;;;18.13;59.42;99735.81;4979002;28;102770;-66
2022/10/03 11:32:23;;;;;;;6.72;3.95;;;;;;;19.38;59.60;99739.69;4990622;28;102692;-66
2022/10/03 11:35:20;;;;;;;7.07;4.05;;;;;;;18.38;61.69;99735.38;5002840;28;104164;-65
2022/10/03 11:37:52;;;;;;;10.20;4.63;;;;;;;18.22;60.57;99743.03;4970897;28;103960;-65
2022/10/03 11:40:31;;;;;;;8.27;4.72;;;;;;;18.14;61.24;99744.66;4987893;28;103080;-65
2022/10/03 11:43:37;;;;;;;9.30;4.40;;;;;;;18.33;60.21;99744.78;4982502;28;103800;-73
2022/10/03 11:46:22;;;;;;;5.38;3.00;;;;;;;19.14;59.46;99741.06;4991027;28;103858;-70
2022/10/03 11:48:56;;;;;;;8.43;3.67;;;;;;;19.25;56.43;99740.91;4980554;28;103246;-73
2022/10/03 11:51:39;;;;;;;7.57;3.80;;;;;;;18.41;60.87;99734.25;4993326;28;102949;-73
2022/10/03 11:54:21;;;;;;;6.57;3.10;;;;;;;18.60;58.16;99730.81;4990353;28;103573;-74
2022/10/03 11:57:03;;;;;;;7.10;2.90;;;;;;;18.84;55.30;99732.13;4971526;28;103257;-66
2022/10/03 11:59:55;;;;;;;8.55;3.75;;;;;;;18.19;61.12;99726.41;4987582;28;103429;-68
2022/10/03 12:02:40;;;;;;;8.83;3.47;;;;;;;18.66;60.01;99725.75;4993732;28;103023;-67
2022/10/03 12:05:19;;;;;;;8.23;3.60;;;;;;;18.55;59.64;99728.56;4989713;28;103382;-68
2022/10/03 12:10:53;;;;;;;7.63;3.30;;;;;;;17.52;62.25;99723.28;4995487;28;104463;-68
2022/10/03 12:13:31;;;;;;;5.05;2.78;;;;;;;17.63;61.98;99728.59;4990218;28;102873;-74
2022/10/03 12:16:02;;;;;;;6.47;3.30;;;;;;;18.29;60.55;99727.28;4994052;28;103163;-67
2022/10/03 12:18:50;;;;;;;8.43;3.90;;;;;;;17.35;61.31;99730.06;4991588;28;104043;-73
2022/10/03 12:21:24;;;;;;;6.18;3.60;;;;;;;17.48;62.09;99725.41;5011251;27;103222;-73
2022/10/03 12:24:19;;;;;;;5.35;3.17;;;;;;;18.27;59.65;99723.91;4990832;28;102959;-68
2022/10/03 12:26:53;;;;;;;7.25;3.10;;;;;;;18.55;60.38;99712.50;4972345;28;104048;-68
2022/10/03 12:29:24;;;;;;;6.38;3.38;;;;;;;18.22;58.96;99702.03;4973383;28;104712;-67
2022/10/03 12:32:04;;;;;;;4.85;2.88;;;;;;;19.29;59.38;99702.13;4965768;28;104361;-67
2022/10/03 12:34:39;;;;;;;6.05;3.15;;;;;;;19.98;56.29;99690.19;4992786;28;102974;-78
2022/10/03 12:37:32;;;;;;;8.70;3.60;;;;;;;19.47;54.80;99690.59;4999108;28;102884;-73
2022/10/03 12:40:05;;;;;;;6.80;3.17;;;;;;;18.63;57.51;99699.28;5008262;27;104130;-73
2022/10/03 12:42:42;;;;;;;6.85;3.22;;;;;;;18.37;58.57;99695.34;4994156;28;103444;-78
2022/10/03 12:45:20;;;;;;;7.40;3.45;;;;;;;18.29;60.98;99698.72;4991908;28;102655;-76
2022/10/03 12:48:00;;;;;;;7.70;3.10;;;;;;;18.32;60.56;99694.94;4995594;28;103969;-67
2022/10/03 12:50:39;;;;;;;7.00;2.83;;;;;;;18.32;59.71;99687.75;4987153;28;104040;-66
2022/10/03 12:53:24;;;;;;;6.25;2.60;;;;;;;17.43;58.71;99689.38;4977097;28;104262;-66
2022/10/03 12:56:07;;;;;;;6.03;2.57;;;;;;;18.37;55.85;99680.16;4989895;28;102711;-75
2022/10/03 12:58:48;;;;;;;8.03;2.60;;;;;;;19.64;55.70;99675.59;4990011;28;104086;-75
2022/10/03 13:01:25;;;;;;;5.40;2.67;;;;;;;19.84;54.98;99681.75;4991867;28;103926;-71
2022/10/03 13:03:55;;;;;;;5.10;2.50;;;;;;;18.42;57.30;99680.59;4991037;28;102951;-70
2022/10/03 13:06:44;;;;;;;5.35;2.80;;;;;;;18.88;58.00;99677.31;4991856;28;102897;-67
2022/10/03 13:09:55;;;;;;;6.50;2.90;;;;;;;18.21;56.67;99676.31;4980734;28;103441;-67
2022/10/03 13:12:38;;;;;;;6.80;2.73;;;;;;;17.96;57.04;99675.75;4980881;28;103577;-73
2022/10/03 13:15:43;;;;;;;6.18;2.70;;;;;;;16.75;61.00;99677.28;4987546;28;103145;-73